Salomonia, Indiana
Current Conditions -  °F | °C
As of 6:15 AM on Saturday 25 Oct 2014 (Local Time) from KVES Reporting Station
Overcast Overcast  
Wind Chill: 10°   Ceiling: 10000
Heat Index: 10°   Visibility: 10mi
Dew Point:   Wind: 3mph
Humidity: 94%   Direction: 190°S
Pressure: 29.95"   Gusts: NA
Location:  40.3534°N, 84.8526°W
Report Text: KVES 251015Z AUTO 19003KT 10SM SCT060 OVC100 10/09 A2995 RMK AO2
Loading
Personal Weather Stations






























Interactive Weather Map
Tropical Storm Tracking
New forecast layout! Learn more

10-Day Weather Forecast

Advertisements
Track Severe Weather on mobile